Terminal Aerodrome Forecast
Issued by NWS

Home | Current Version | Previous Version | Text Only | Print | Product List | Glossary On
Versions: 1 2 3 4 5 6 7 8 9 10 11 12 13 14 15
515
FTUS42 TJSJ 212340
TAFNCM
TAF
TNCM 212340Z 2200/2224 33012KT P6SM FEW020
     FM221200 36008KT P6SM FEW020
     FM222200 04010KT P6SM FEW020=

USA.gov is the U.S. government's official web portal to all federal, state and local government web resources and services.